sensor_id;sensor_type;location;lat;lon;timestamp;temperature;humidity
34279;DHT22;20538;51.528;9.942;2023-02-17T00:00:24;7.80;99.90
34279;DHT22;20538;51.528;9.942;2023-02-17T00:02:54;7.80;99.90
34279;DHT22;20538;51.528;9.942;2023-02-17T00:05:21;7.80;99.90
34279;DHT22;20538;51.528;9.942;2023-02-17T00:07:47;7.80;99.90
34279;DHT22;20538;51.528;9.942;2023-02-17T00:10:12;7.80;99.90
34279;DHT22;20538;51.528;9.942;2023-02-17T00:12:38;7.80;99.90
34279;DHT22;20538;51.528;9.942;2023-02-17T00:15:04;7.80;99.90
34279;DHT22;20538;51.528;9.942;2023-02-17T00:17:30;7.70;99.90
34279;DHT22;20538;51.528;9.942;2023-02-17T00:19:55;7.80;99.90
34279;DHT22;20538;51.528;9.942;2023-02-17T00:22:21;7.80;99.90
34279;DHT22;20538;51.528;9.942;2023-02-17T00:24:46;7.80;99.90
34279;DHT22;20538;51.528;9.942;2023-02-17T00:27:12;7.80;99.90
34279;DHT22;20538;51.528;9.942;2023-02-17T00:29:38;7.80;99.90
34279;DHT22;20538;51.528;9.942;2023-02-17T00:32:03;7.80;99.90
34279;DHT22;20538;51.528;9.942;2023-02-17T00:34:30;7.80;99.90
34279;DHT22;20538;51.528;9.942;2023-02-17T00:36:55;7.80;99.90
34279;DHT22;20538;51.528;9.942;2023-02-17T00:39:21;7.80;99.90
34279;DHT22;20538;51.528;9.942;2023-02-17T00:41:47;7.90;99.90
34279;DHT22;20538;51.528;9.942;2023-02-17T00:44:18;7.90;99.90
34279;DHT22;20538;51.528;9.942;2023-02-17T00:46:45;7.90;99.90
34279;DHT22;20538;51.528;9.942;2023-02-17T00:49:25;7.80;99.90
34279;DHT22;20538;51.528;9.942;2023-02-17T00:51:52;7.80;99.90
34279;DHT22;20538;51.528;9.942;2023-02-17T00:54:18;7.80;99.90
34279;DHT22;20538;51.528;9.942;2023-02-17T00:56:45;7.90;99.90
34279;DHT22;20538;51.528;9.942;2023-02-17T00:59:11;7.80;99.90
34279;DHT22;20538;51.528;9.942;2023-02-17T01:01:37;7.80;99.90
34279;DHT22;20538;51.528;9.942;2023-02-17T01:04:04;7.80;99.90
34279;DHT22;20538;51.528;9.942;2023-02-17T01:06:34;7.80;99.90
34279;DHT22;20538;51.528;9.942;2023-02-17T01:09:00;7.70;99.90
34279;DHT22;20538;51.528;9.942;2023-02-17T01:11:28;7.70;99.90
34279;DHT22;20538;51.528;9.942;2023-02-17T01:13:54;7.70;99.90
34279;DHT22;20538;51.528;9.942;2023-02-17T01:18:48;7.70;99.90
34279;DHT22;20538;51.528;9.942;2023-02-17T01:21:24;7.70;99.90
34279;DHT22;20538;51.528;9.942;2023-02-17T01:23:52;7.70;99.90
34279;DHT22;20538;51.528;9.942;2023-02-17T01:26:20;7.70;99.90
34279;DHT22;20538;51.528;9.942;2023-02-17T01:28:47;7.70;99.90
34279;DHT22;20538;51.528;9.942;2023-02-17T01:31:12;7.70;99.90
34279;DHT22;20538;51.528;9.942;2023-02-17T01:33:39;7.70;99.90
34279;DHT22;20538;51.528;9.942;2023-02-17T01:36:07;7.70;99.90
34279;DHT22;20538;51.528;9.942;2023-02-17T01:38:34;7.70;99.90
34279;DHT22;20538;51.528;9.942;2023-02-17T01:41:01;7.70;99.90
34279;DHT22;20538;51.528;9.942;2023-02-17T01:43:27;7.80;99.90
34279;DHT22;20538;51.528;9.942;2023-02-17T01:45:54;7.80;99.90
34279;DHT22;20538;51.528;9.942;2023-02-17T01:48:26;7.80;99.90
34279;DHT22;20538;51.528;9.942;2023-02-17T01:50:59;7.80;99.90
34279;DHT22;20538;51.528;9.942;2023-02-17T01:53:32;7.80;99.90
34279;DHT22;20538;51.528;9.942;2023-02-17T01:55:59;7.90;99.90
34279;DHT22;20538;51.528;9.942;2023-02-17T01:58:27;7.90;99.90
34279;DHT22;20538;51.528;9.942;2023-02-17T02:00:54;7.90;99.90
34279;DHT22;20538;51.528;9.942;2023-02-17T02:03:21;7.90;99.90
34279;DHT22;20538;51.528;9.942;2023-02-17T02:05:46;7.90;99.90
34279;DHT22;20538;51.528;9.942;2023-02-17T02:08:12;7.90;99.90
34279;DHT22;20538;51.528;9.942;2023-02-17T02:10:39;7.90;99.90
34279;DHT22;20538;51.528;9.942;2023-02-17T02:13:06;7.90;99.90
34279;DHT22;20538;51.528;9.942;2023-02-17T02:16:02;7.90;99.90
34279;DHT22;20538;51.528;9.942;2023-02-17T02:24:21;8.00;99.90
34279;DHT22;20538;51.528;9.942;2023-02-17T02:34:46;8.00;99.90
34279;DHT22;20538;51.528;9.942;2023-02-17T02:37:18;8.00;99.90
34279;DHT22;20538;51.528;9.942;2023-02-17T02:39:48;8.00;99.90
34279;DHT22;20538;51.528;9.942;2023-02-17T02:42:22;8.00;99.90
34279;DHT22;20538;51.528;9.942;2023-02-17T02:44:48;8.10;99.90
34279;DHT22;20538;51.528;9.942;2023-02-17T02:50:04;8.10;99.90
34279;DHT22;20538;51.528;9.942;2023-02-17T02:52:36;8.10;99.90
34279;DHT22;20538;51.528;9.942;2023-02-17T02:55:13;8.10;99.90
34279;DHT22;20538;51.528;9.942;2023-02-17T03:05:25;8.10;99.90
34279;DHT22;20538;51.528;9.942;2023-02-17T03:10:21;8.10;99.90
34279;DHT22;20538;51.528;9.942;2023-02-17T03:12:47;8.10;99.90
34279;DHT22;20538;51.528;9.942;2023-02-17T03:15:22;8.10;99.90
34279;DHT22;20538;51.528;9.942;2023-02-17T03:17:49;8.20;99.90
34279;DHT22;20538;51.528;9.942;2023-02-17T03:20:15;8.10;99.90
34279;DHT22;20538;51.528;9.942;2023-02-17T03:22:44;8.20;99.90
34279;DHT22;20538;51.528;9.942;2023-02-17T03:25:12;8.20;99.90
34279;DHT22;20538;51.528;9.942;2023-02-17T03:27:38;8.10;99.90
34279;DHT22;20538;51.528;9.942;2023-02-17T03:30:04;8.20;99.90
34279;DHT22;20538;51.528;9.942;2023-02-17T03:32:29;8.20;99.90
34279;DHT22;20538;51.528;9.942;2023-02-17T03:34:55;8.20;99.90
34279;DHT22;20538;51.528;9.942;2023-02-17T03:37:21;8.20;99.90
34279;DHT22;20538;51.528;9.942;2023-02-17T03:39:46;8.20;99.90
34279;DHT22;20538;51.528;9.942;2023-02-17T03:42:12;8.20;99.90
34279;DHT22;20538;51.528;9.942;2023-02-17T03:44:38;8.20;99.90
34279;DHT22;20538;51.528;9.942;2023-02-17T03:47:03;8.20;99.90
34279;DHT22;20538;51.528;9.942;2023-02-17T03:49:29;8.20;99.90
34279;DHT22;20538;51.528;9.942;2023-02-17T03:51:55;8.20;99.90
34279;DHT22;20538;51.528;9.942;2023-02-17T03:54:22;8.20;99.90
34279;DHT22;20538;51.528;9.942;2023-02-17T03:56:47;8.30;99.90
34279;DHT22;20538;51.528;9.942;2023-02-17T03:59:13;8.30;99.90
34279;DHT22;20538;51.528;9.942;2023-02-17T04:01:39;8.20;99.90
34279;DHT22;20538;51.528;9.942;2023-02-17T04:04:04;8.30;99.90
34279;DHT22;20538;51.528;9.942;2023-02-17T04:06:30;8.30;99.90
34279;DHT22;20538;51.528;9.942;2023-02-17T04:08:55;8.30;99.90
34279;DHT22;20538;51.528;9.942;2023-02-17T04:11:21;8.30;99.90
34279;DHT22;20538;51.528;9.942;2023-02-17T04:13:46;8.30;99.90
34279;DHT22;20538;51.528;9.942;2023-02-17T04:16:12;8.30;99.90
34279;DHT22;20538;51.528;9.942;2023-02-17T04:18:38;8.30;99.90
34279;DHT22;20538;51.528;9.942;2023-02-17T04:21:04;8.30;99.90
34279;DHT22;20538;51.528;9.942;2023-02-17T04:23:30;8.30;99.90
34279;DHT22;20538;51.528;9.942;2023-02-17T04:25:56;8.30;99.90
34279;DHT22;20538;51.528;9.942;2023-02-17T04:28:22;8.30;99.90
34279;DHT22;20538;51.528;9.942;2023-02-17T04:30:49;8.30;99.90
34279;DHT22;20538;51.528;9.942;2023-02-17T04:33:15;8.40;99.90
34279;DHT22;20538;51.528;9.942;2023-02-17T04:35:41;8.30;99.90
34279;DHT22;20538;51.528;9.942;2023-02-17T04:38:07;8.40;99.90
34279;DHT22;20538;51.528;9.942;2023-02-17T04:40:35;8.40;99.90
34279;DHT22;20538;51.528;9.942;2023-02-17T04:43:01;8.40;99.90
34279;DHT22;20538;51.528;9.942;2023-02-17T04:45:26;8.40;99.90
34279;DHT22;20538;51.528;9.942;2023-02-17T04:47:52;8.40;99.90
34279;DHT22;20538;51.528;9.942;2023-02-17T04:50:18;8.50;99.90
34279;DHT22;20538;51.528;9.942;2023-02-17T04:52:43;8.50;99.90
34279;DHT22;20538;51.528;9.942;2023-02-17T04:55:10;8.40;99.90
34279;DHT22;20538;51.528;9.942;2023-02-17T04:57:35;8.50;99.90
34279;DHT22;20538;51.528;9.942;2023-02-17T05:00:02;8.50;99.90
34279;DHT22;20538;51.528;9.942;2023-02-17T05:02:28;8.50;99.90
34279;DHT22;20538;51.528;9.942;2023-02-17T05:04:54;8.50;99.90
34279;DHT22;20538;51.528;9.942;2023-02-17T05:07:20;8.50;99.90
34279;DHT22;20538;51.528;9.942;2023-02-17T05:09:46;8.50;99.90
34279;DHT22;20538;51.528;9.942;2023-02-17T05:12:11;8.50;99.90
34279;DHT22;20538;51.528;9.942;2023-02-17T05:14:37;8.50;99.90
34279;DHT22;20538;51.528;9.942;2023-02-17T05:17:03;8.50;99.90
34279;DHT22;20538;51.528;9.942;2023-02-17T05:19:29;8.50;99.90
34279;DHT22;20538;51.528;9.942;2023-02-17T05:21:54;8.50;99.90
34279;DHT22;20538;51.528;9.942;2023-02-17T05:24:20;8.50;99.90
34279;DHT22;20538;51.528;9.942;2023-02-17T05:26:46;8.50;99.90
34279;DHT22;20538;51.528;9.942;2023-02-17T05:29:11;8.50;99.90
34279;DHT22;20538;51.528;9.942;2023-02-17T05:31:37;8.60;99.90
34279;DHT22;20538;51.528;9.942;2023-02-17T05:34:02;8.60;99.90
34279;DHT22;20538;51.528;9.942;2023-02-17T05:36:28;8.60;99.90
34279;DHT22;20538;51.528;9.942;2023-02-17T05:38:54;8.60;99.90
34279;DHT22;20538;51.528;9.942;2023-02-17T05:41:19;8.60;99.90
34279;DHT22;20538;51.528;9.942;2023-02-17T05:43:46;8.60;99.90
34279;DHT22;20538;51.528;9.942;2023-02-17T05:46:12;8.60;99.90
34279;DHT22;20538;51.528;9.942;2023-02-17T05:48:38;8.60;99.90
34279;DHT22;20538;51.528;9.942;2023-02-17T05:51:04;8.60;99.90
34279;DHT22;20538;51.528;9.942;2023-02-17T05:53:29;8.60;99.90
34279;DHT22;20538;51.528;9.942;2023-02-17T05:55:55;8.60;99.90
34279;DHT22;20538;51.528;9.942;2023-02-17T05:58:21;8.60;99.90
34279;DHT22;20538;51.528;9.942;2023-02-17T06:00:46;8.60;99.90
34279;DHT22;20538;51.528;9.942;2023-02-17T06:03:12;8.70;99.90
34279;DHT22;20538;51.528;9.942;2023-02-17T06:05:38;8.70;99.90
34279;DHT22;20538;51.528;9.942;2023-02-17T06:08:04;8.70;99.90
34279;DHT22;20538;51.528;9.942;2023-02-17T06:10:30;8.70;99.90
34279;DHT22;20538;51.528;9.942;2023-02-17T06:12:56;8.60;99.90
34279;DHT22;20538;51.528;9.942;2023-02-17T06:15:21;8.70;99.90
34279;DHT22;20538;51.528;9.942;2023-02-17T06:17:47;8.60;99.90
34279;DHT22;20538;51.528;9.942;2023-02-17T06:20:13;8.60;99.90
34279;DHT22;20538;51.528;9.942;2023-02-17T06:22:38;8.60;99.90
34279;DHT22;20538;51.528;9.942;2023-02-17T06:25:04;8.60;99.90
34279;DHT22;20538;51.528;9.942;2023-02-17T06:27:30;8.60;99.90
34279;DHT22;20538;51.528;9.942;2023-02-17T06:29:56;8.60;99.90
34279;DHT22;20538;51.528;9.942;2023-02-17T06:32:21;8.60;99.90
34279;DHT22;20538;51.528;9.942;2023-02-17T06:34:47;8.60;99.90
34279;DHT22;20538;51.528;9.942;2023-02-17T06:37:12;8.60;99.90
34279;DHT22;20538;51.528;9.942;2023-02-17T06:39:38;8.60;99.90
34279;DHT22;20538;51.528;9.942;2023-02-17T06:42:04;8.60;99.90
34279;DHT22;20538;51.528;9.942;2023-02-17T06:44:29;8.60;99.90
34279;DHT22;20538;51.528;9.942;2023-02-17T06:46:55;8.70;99.90
34279;DHT22;20538;51.528;9.942;2023-02-17T06:49:21;8.70;99.90
34279;DHT22;20538;51.528;9.942;2023-02-17T06:51:47;8.70;99.90
34279;DHT22;20538;51.528;9.942;2023-02-17T06:54:13;8.70;99.90
34279;DHT22;20538;51.528;9.942;2023-02-17T06:56:38;8.80;99.90
34279;DHT22;20538;51.528;9.942;2023-02-17T06:59:04;8.80;99.90
34279;DHT22;20538;51.528;9.942;2023-02-17T07:01:29;8.80;99.90
34279;DHT22;20538;51.528;9.942;2023-02-17T07:03:55;8.80;99.90
34279;DHT22;20538;51.528;9.942;2023-02-17T07:06:23;8.80;99.90
34279;DHT22;20538;51.528;9.942;2023-02-17T07:08:49;8.80;99.90
34279;DHT22;20538;51.528;9.942;2023-02-17T07:11:16;8.80;99.90
34279;DHT22;20538;51.528;9.942;2023-02-17T07:13:42;8.90;99.90
34279;DHT22;20538;51.528;9.942;2023-02-17T07:16:10;8.90;99.90
34279;DHT22;20538;51.528;9.942;2023-02-17T07:18:36;9.00;99.90
34279;DHT22;20538;51.528;9.942;2023-02-17T07:21:03;9.00;99.90
34279;DHT22;20538;51.528;9.942;2023-02-17T07:23:30;9.00;99.90
34279;DHT22;20538;51.528;9.942;2023-02-17T07:25:55;9.10;99.90
34279;DHT22;20538;51.528;9.942;2023-02-17T07:28:25;9.10;99.90
34279;DHT22;20538;51.528;9.942;2023-02-17T07:30:51;9.10;99.90
34279;DHT22;20538;51.528;9.942;2023-02-17T07:33:16;9.10;99.90
34279;DHT22;20538;51.528;9.942;2023-02-17T07:35:42;9.10;99.90
34279;DHT22;20538;51.528;9.942;2023-02-17T07:38:11;9.20;99.90
34279;DHT22;20538;51.528;9.942;2023-02-17T07:40:38;9.30;99.90
34279;DHT22;20538;51.528;9.942;2023-02-17T07:43:04;9.30;99.90
34279;DHT22;20538;51.528;9.942;2023-02-17T07:45:29;9.40;99.90
34279;DHT22;20538;51.528;9.942;2023-02-17T07:47:55;9.40;99.90
34279;DHT22;20538;51.528;9.942;2023-02-17T07:50:20;9.50;99.90
34279;DHT22;20538;51.528;9.942;2023-02-17T07:52:46;9.50;99.90
34279;DHT22;20538;51.528;9.942;2023-02-17T07:55:12;9.60;99.90
34279;DHT22;20538;51.528;9.942;2023-02-17T07:57:37;9.60;99.90
34279;DHT22;20538;51.528;9.942;2023-02-17T08:00:05;9.70;99.90
34279;DHT22;20538;51.528;9.942;2023-02-17T08:02:30;9.60;99.90
34279;DHT22;20538;51.528;9.942;2023-02-17T08:04:56;9.70;99.90
34279;DHT22;20538;51.528;9.942;2023-02-17T08:07:22;9.60;99.90
34279;DHT22;20538;51.528;9.942;2023-02-17T08:09:47;9.60;99.90
34279;DHT22;20538;51.528;9.942;2023-02-17T08:12:32;9.60;99.90
34279;DHT22;20538;51.528;9.942;2023-02-17T08:15:16;9.60;99.90
34279;DHT22;20538;51.528;9.942;2023-02-17T08:17:42;9.70;99.90
34279;DHT22;20538;51.528;9.942;2023-02-17T08:20:09;9.70;99.90
34279;DHT22;20538;51.528;9.942;2023-02-17T08:22:35;9.70;99.90
34279;DHT22;20538;51.528;9.942;2023-02-17T08:25:01;9.80;99.90
34279;DHT22;20538;51.528;9.942;2023-02-17T08:27:26;9.80;99.90
34279;DHT22;20538;51.528;9.942;2023-02-17T08:29:52;9.80;99.90
34279;DHT22;20538;51.528;9.942;2023-02-17T08:32:18;9.80;99.90
34279;DHT22;20538;51.528;9.942;2023-02-17T08:34:44;9.90;99.90
34279;DHT22;20538;51.528;9.942;2023-02-17T08:37:10;9.80;99.90
34279;DHT22;20538;51.528;9.942;2023-02-17T08:39:36;9.90;99.90
34279;DHT22;20538;51.528;9.942;2023-02-17T08:42:03;9.90;99.90
34279;DHT22;20538;51.528;9.942;2023-02-17T08:44:29;9.90;99.90
34279;DHT22;20538;51.528;9.942;2023-02-17T08:46:55;9.90;99.90
34279;DHT22;20538;51.528;9.942;2023-02-17T08:49:24;10.00;99.90
34279;DHT22;20538;51.528;9.942;2023-02-17T08:51:50;10.00;99.90
34279;DHT22;20538;51.528;9.942;2023-02-17T08:54:16;10.10;99.90
34279;DHT22;20538;51.528;9.942;2023-02-17T08:56:43;10.10;99.90
34279;DHT22;20538;51.528;9.942;2023-02-17T08:59:10;10.10;99.90
34279;DHT22;20538;51.528;9.942;2023-02-17T09:01:37;10.10;99.90
34279;DHT22;20538;51.528;9.942;2023-02-17T09:04:05;10.10;99.90
34279;DHT22;20538;51.528;9.942;2023-02-17T09:06:41;10.20;99.90
34279;DHT22;20538;51.528;9.942;2023-02-17T09:09:09;10.30;99.90
34279;DHT22;20538;51.528;9.942;2023-02-17T09:11:35;10.30;99.90
34279;DHT22;20538;51.528;9.942;2023-02-17T09:14:01;10.30;99.90
34279;DHT22;20538;51.528;9.942;2023-02-17T09:16:27;10.40;99.90
34279;DHT22;20538;51.528;9.942;2023-02-17T09:18:53;10.40;99.90
34279;DHT22;20538;51.528;9.942;2023-02-17T09:21:19;10.30;99.90
34279;DHT22;20538;51.528;9.942;2023-02-17T09:23:47;10.40;99.90
34279;DHT22;20538;51.528;9.942;2023-02-17T09:26:15;10.40;99.90
34279;DHT22;20538;51.528;9.942;2023-02-17T09:28:42;10.40;99.90
34279;DHT22;20538;51.528;9.942;2023-02-17T09:33:33;10.40;99.90
34279;DHT22;20538;51.528;9.942;2023-02-17T09:35:59;10.40;99.90
34279;DHT22;20538;51.528;9.942;2023-02-17T09:38:25;10.40;99.90
34279;DHT22;20538;51.528;9.942;2023-02-17T09:40:50;10.40;99.90
34279;DHT22;20538;51.528;9.942;2023-02-17T09:43:18;10.40;99.90
34279;DHT22;20538;51.528;9.942;2023-02-17T09:45:51;10.50;99.90
34279;DHT22;20538;51.528;9.942;2023-02-17T09:48:25;10.50;99.90
34279;DHT22;20538;51.528;9.942;2023-02-17T09:50:59;10.60;99.90
34279;DHT22;20538;51.528;9.942;2023-02-17T09:53:33;10.60;99.90
34279;DHT22;20538;51.528;9.942;2023-02-17T09:56:04;10.70;99.90
34279;DHT22;20538;51.528;9.942;2023-02-17T09:58:33;10.60;99.90
34279;DHT22;20538;51.528;9.942;2023-02-17T10:01:05;10.70;99.90
34279;DHT22;20538;51.528;9.942;2023-02-17T10:03:45;10.70;99.90
34279;DHT22;20538;51.528;9.942;2023-02-17T10:06:22;10.70;99.90
34279;DHT22;20538;51.528;9.942;2023-02-17T10:09:00;10.80;99.90
34279;DHT22;20538;51.528;9.942;2023-02-17T10:11:34;10.80;99.90
34279;DHT22;20538;51.528;9.942;2023-02-17T10:14:39;10.90;99.90
34279;DHT22;20538;51.528;9.942;2023-02-17T10:17:07;10.90;99.90
34279;DHT22;20538;51.528;9.942;2023-02-17T10:19:40;10.90;99.90
34279;DHT22;20538;51.528;9.942;2023-02-17T10:22:17;11.00;99.90
34279;DHT22;20538;51.528;9.942;2023-02-17T10:24:44;11.00;99.90
34279;DHT22;20538;51.528;9.942;2023-02-17T10:27:20;11.00;99.90
34279;DHT22;20538;51.528;9.942;2023-02-17T10:30:08;11.10;99.90
34279;DHT22;20538;51.528;9.942;2023-02-17T10:35:32;11.10;99.90
34279;DHT22;20538;51.528;9.942;2023-02-17T10:38:16;11.10;99.90
34279;DHT22;20538;51.528;9.942;2023-02-17T10:40:45;11.10;99.90
34279;DHT22;20538;51.528;9.942;2023-02-17T10:43:17;11.20;99.90
34279;DHT22;20538;51.528;9.942;2023-02-17T10:45:46;11.20;99.90
34279;DHT22;20538;51.528;9.942;2023-02-17T10:48:19;11.30;99.90
34279;DHT22;20538;51.528;9.942;2023-02-17T10:50:47;11.30;99.90
34279;DHT22;20538;51.528;9.942;2023-02-17T10:53:21;11.30;99.90
34279;DHT22;20538;51.528;9.942;2023-02-17T11:01:12;11.30;99.90
34279;DHT22;20538;51.528;9.942;2023-02-17T11:03:39;11.30;99.90
34279;DHT22;20538;51.528;9.942;2023-02-17T11:06:25;11.30;99.90
34279;DHT22;20538;51.528;9.942;2023-02-17T11:08:55;11.30;99.90
34279;DHT22;20538;51.528;9.942;2023-02-17T11:11:28;11.30;99.90
34279;DHT22;20538;51.528;9.942;2023-02-17T11:14:20;11.40;99.90
34279;DHT22;20538;51.528;9.942;2023-02-17T11:17:02;11.40;99.90
34279;DHT22;20538;51.528;9.942;2023-02-17T11:19:31;11.50;99.90
34279;DHT22;20538;51.528;9.942;2023-02-17T11:22:02;11.60;99.90
34279;DHT22;20538;51.528;9.942;2023-02-17T11:24:30;11.60;99.90
34279;DHT22;20538;51.528;9.942;2023-02-17T11:27:03;11.70;99.90
34279;DHT22;20538;51.528;9.942;2023-02-17T11:29:30;11.80;99.90
34279;DHT22;20538;51.528;9.942;2023-02-17T11:32:00;11.90;99.90
34279;DHT22;20538;51.528;9.942;2023-02-17T11:34:30;12.00;99.90
34279;DHT22;20538;51.528;9.942;2023-02-17T11:37:05;12.00;99.90
34279;DHT22;20538;51.528;9.942;2023-02-17T11:39:50;12.00;99.90
34279;DHT22;20538;51.528;9.942;2023-02-17T11:42:22;12.10;99.90
34279;DHT22;20538;51.528;9.942;2023-02-17T11:44:50;12.20;99.90
34279;DHT22;20538;51.528;9.942;2023-02-17T11:50:24;12.30;99.90
34279;DHT22;20538;51.528;9.942;2023-02-17T11:53:40;12.30;99.90
34279;DHT22;20538;51.528;9.942;2023-02-17T11:58:36;12.30;99.90
34279;DHT22;20538;51.528;9.942;2023-02-17T12:15:37;12.50;99.90
34279;DHT22;20538;51.528;9.942;2023-02-17T12:21:08;12.80;99.90
34279;DHT22;20538;51.528;9.942;2023-02-17T12:26:32;13.20;99.90
34279;DHT22;20538;51.528;9.942;2023-02-17T12:32:25;13.60;99.90
34279;DHT22;20538;51.528;9.942;2023-02-17T12:37:53;14.00;99.90
34279;DHT22;20538;51.528;9.942;2023-02-17T12:43:00;14.40;99.90
34279;DHT22;20538;51.528;9.942;2023-02-17T12:45:42;14.50;99.90
34279;DHT22;20538;51.528;9.942;2023-02-17T12:48:25;14.40;99.90
34279;DHT22;20538;51.528;9.942;2023-02-17T12:53:38;14.50;99.90
34279;DHT22;20538;51.528;9.942;2023-02-17T12:58:47;14.60;99.90
34279;DHT22;20538;51.528;9.942;2023-02-17T13:01:17;14.60;99.90
34279;DHT22;20538;51.528;9.942;2023-02-17T13:03:45;14.70;99.90
34279;DHT22;20538;51.528;9.942;2023-02-17T13:06:24;14.70;99.90
34279;DHT22;20538;51.528;9.942;2023-02-17T13:08:57;14.70;99.90
34279;DHT22;20538;51.528;9.942;2023-02-17T13:11:31;14.80;99.90
34279;DHT22;20538;51.528;9.942;2023-02-17T13:14:25;14.90;99.90
34279;DHT22;20538;51.528;9.942;2023-02-17T13:16:52;14.80;99.90
34279;DHT22;20538;51.528;9.942;2023-02-17T13:19:33;14.90;99.90
34279;DHT22;20538;51.528;9.942;2023-02-17T13:22:00;14.70;99.90
34279;DHT22;20538;51.528;9.942;2023-02-17T13:27:11;14.70;99.90
34279;DHT22;20538;51.528;9.942;2023-02-17T13:29:37;14.70;99.90
34279;DHT22;20538;51.528;9.942;2023-02-17T13:32:06;14.70;99.90
34279;DHT22;20538;51.528;9.942;2023-02-17T13:34:36;14.70;99.90
34279;DHT22;20538;51.528;9.942;2023-02-17T13:39:52;14.70;99.90
34279;DHT22;20538;51.528;9.942;2023-02-17T13:42:37;14.70;99.90
34279;DHT22;20538;51.528;9.942;2023-02-17T13:47:52;14.80;99.90
34279;DHT22;20538;51.528;9.942;2023-02-17T13:50:32;14.80;99.90
34279;DHT22;20538;51.528;9.942;2023-02-17T13:52:59;14.70;99.90
34279;DHT22;20538;51.528;9.942;2023-02-17T13:55:25;14.60;99.90
34279;DHT22;20538;51.528;9.942;2023-02-17T13:57:58;14.60;99.90
34279;DHT22;20538;51.528;9.942;2023-02-17T14:00:28;14.50;99.90
34279;DHT22;20538;51.528;9.942;2023-02-17T14:03:56;14.50;99.90
34279;DHT22;20538;51.528;9.942;2023-02-17T14:05:58;14.40;99.90
34279;DHT22;20538;51.528;9.942;2023-02-17T14:08:38;14.30;99.90
34279;DHT22;20538;51.528;9.942;2023-02-17T14:11:11;14.30;99.90
34279;DHT22;20538;51.528;9.942;2023-02-17T14:13:41;14.30;99.90
34279;DHT22;20538;51.528;9.942;2023-02-17T14:16:28;14.30;99.90
34279;DHT22;20538;51.528;9.942;2023-02-17T14:19:10;14.20;99.90
34279;DHT22;20538;51.528;9.942;2023-02-17T14:21:39;14.20;99.90
34279;DHT22;20538;51.528;9.942;2023-02-17T14:24:05;14.20;99.90
34279;DHT22;20538;51.528;9.942;2023-02-17T14:26:45;14.10;99.90
34279;DHT22;20538;51.528;9.942;2023-02-17T14:29:13;14.20;99.90
34279;DHT22;20538;51.528;9.942;2023-02-17T14:31:48;14.30;99.90
34279;DHT22;20538;51.528;9.942;2023-02-17T14:34:32;14.30;99.90
34279;DHT22;20538;51.528;9.942;2023-02-17T14:39:33;14.10;99.90
34279;DHT22;20538;51.528;9.942;2023-02-17T14:41:58;14.20;99.90
34279;DHT22;20538;51.528;9.942;2023-02-17T14:44:24;14.20;99.90
34279;DHT22;20538;51.528;9.942;2023-02-17T14:46:50;14.10;99.90
34279;DHT22;20538;51.528;9.942;2023-02-17T14:49:15;14.00;99.90
34279;DHT22;20538;51.528;9.942;2023-02-17T14:51:41;14.00;99.90
34279;DHT22;20538;51.528;9.942;2023-02-17T14:54:13;14.00;99.90
34279;DHT22;20538;51.528;9.942;2023-02-17T14:57:07;13.90;99.90
34279;DHT22;20538;51.528;9.942;2023-02-17T14:59:33;13.80;99.90
34279;DHT22;20538;51.528;9.942;2023-02-17T15:01:59;13.70;99.90
34279;DHT22;20538;51.528;9.942;2023-02-17T15:04:25;13.60;99.90
34279;DHT22;20538;51.528;9.942;2023-02-17T15:06:51;13.40;99.90
34279;DHT22;20538;51.528;9.942;2023-02-17T15:09:26;13.30;99.90
34279;DHT22;20538;51.528;9.942;2023-02-17T15:11:52;13.20;99.90
34279;DHT22;20538;51.528;9.942;2023-02-17T15:14:19;13.20;99.90
34279;DHT22;20538;51.528;9.942;2023-02-17T15:16:46;13.20;99.90
34279;DHT22;20538;51.528;9.942;2023-02-17T15:19:13;13.10;99.90
34279;DHT22;20538;51.528;9.942;2023-02-17T15:21:46;13.20;99.90
34279;DHT22;20538;51.528;9.942;2023-02-17T15:24:21;13.20;99.90
34279;DHT22;20538;51.528;9.942;2023-02-17T15:26:47;13.20;99.90
34279;DHT22;20538;51.528;9.942;2023-02-17T15:29:23;13.10;99.90
34279;DHT22;20538;51.528;9.942;2023-02-17T15:31:50;13.20;99.90
34279;DHT22;20538;51.528;9.942;2023-02-17T15:34:18;13.10;99.90
34279;DHT22;20538;51.528;9.942;2023-02-17T15:36:45;13.10;99.90
34279;DHT22;20538;51.528;9.942;2023-02-17T15:39:16;13.20;99.90
34279;DHT22;20538;51.528;9.942;2023-02-17T15:41:43;13.10;99.90
34279;DHT22;20538;51.528;9.942;2023-02-17T15:44:38;13.10;99.90
34279;DHT22;20538;51.528;9.942;2023-02-17T15:47:11;13.00;99.90
34279;DHT22;20538;51.528;9.942;2023-02-17T15:49:38;13.00;99.90
34279;DHT22;20538;51.528;9.942;2023-02-17T15:52:09;12.80;99.90
34279;DHT22;20538;51.528;9.942;2023-02-17T15:54:40;12.80;99.90
34279;DHT22;20538;51.528;9.942;2023-02-17T15:57:07;12.70;99.90
34279;DHT22;20538;51.528;9.942;2023-02-17T15:59:34;12.50;99.90
34279;DHT22;20538;51.528;9.942;2023-02-17T16:02:00;12.40;99.90
34279;DHT22;20538;51.528;9.942;2023-02-17T16:04:27;12.30;99.90
34279;DHT22;20538;51.528;9.942;2023-02-17T16:06:52;12.20;99.90
34279;DHT22;20538;51.528;9.942;2023-02-17T16:09:18;12.10;99.90
34279;DHT22;20538;51.528;9.942;2023-02-17T16:11:51;12.00;99.90
34279;DHT22;20538;51.528;9.942;2023-02-17T16:14:32;12.00;99.90
34279;DHT22;20538;51.528;9.942;2023-02-17T16:17:01;12.00;99.90
34279;DHT22;20538;51.528;9.942;2023-02-17T16:19:31;12.00;99.90
34279;DHT22;20538;51.528;9.942;2023-02-17T16:22:00;12.00;99.90
34279;DHT22;20538;51.528;9.942;2023-02-17T16:24:26;12.00;99.90
34279;DHT22;20538;51.528;9.942;2023-02-17T16:26:51;12.00;99.90
34279;DHT22;20538;51.528;9.942;2023-02-17T16:29:20;11.90;99.90
34279;DHT22;20538;51.528;9.942;2023-02-17T16:31:46;11.80;99.90
34279;DHT22;20538;51.528;9.942;2023-02-17T16:34:21;11.80;99.90
34279;DHT22;20538;51.528;9.942;2023-02-17T16:36:51;11.80;99.90
34279;DHT22;20538;51.528;9.942;2023-02-17T16:39:18;11.80;99.90
34279;DHT22;20538;51.528;9.942;2023-02-17T16:41:45;11.80;99.90
34279;DHT22;20538;51.528;9.942;2023-02-17T16:44:21;11.70;99.90
34279;DHT22;20538;51.528;9.942;2023-02-17T16:46:52;11.70;99.90
34279;DHT22;20538;51.528;9.942;2023-02-17T16:49:23;11.70;99.90
34279;DHT22;20538;51.528;9.942;2023-02-17T16:51:50;11.70;99.90
34279;DHT22;20538;51.528;9.942;2023-02-17T16:54:17;11.60;99.90
34279;DHT22;20538;51.528;9.942;2023-02-17T16:56:45;11.60;99.90
34279;DHT22;20538;51.528;9.942;2023-02-17T16:59:17;11.50;99.90
34279;DHT22;20538;51.528;9.942;2023-02-17T17:01:47;11.50;99.90
34279;DHT22;20538;51.528;9.942;2023-02-17T17:04:13;11.40;99.90
34279;DHT22;20538;51.528;9.942;2023-02-17T17:06:46;11.40;99.90
34279;DHT22;20538;51.528;9.942;2023-02-17T17:09:17;11.40;99.90
34279;DHT22;20538;51.528;9.942;2023-02-17T17:11:48;11.40;99.90
34279;DHT22;20538;51.528;9.942;2023-02-17T17:14:14;11.50;99.90
34279;DHT22;20538;51.528;9.942;2023-02-17T17:16:49;11.40;99.90
34279;DHT22;20538;51.528;9.942;2023-02-17T17:19:15;11.40;99.90
34279;DHT22;20538;51.528;9.942;2023-02-17T17:21:41;11.50;99.90